sensor_id;sensor_type;location;lat;lon;timestamp;temperature;humidity
25839;DHT22;13669;50.186;27.062;2022-07-31T00:00:25;21.80;1.00
25839;DHT22;13669;50.186;27.062;2022-07-31T00:02:52;21.80;1.00
25839;DHT22;13669;50.186;27.062;2022-07-31T00:05:21;21.80;1.00
25839;DHT22;13669;50.186;27.062;2022-07-31T00:07:49;21.80;1.00
25839;DHT22;13669;50.186;27.062;2022-07-31T00:10:17;21.80;1.00
25839;DHT22;13669;50.186;27.062;2022-07-31T00:12:44;21.80;1.00
25839;DHT22;13669;50.186;27.062;2022-07-31T00:15:12;21.70;1.00
25839;DHT22;13669;50.186;27.062;2022-07-31T00:17:41;21.70;1.00
25839;DHT22;13669;50.186;27.062;2022-07-31T00:20:13;21.70;1.00
25839;DHT22;13669;50.186;27.062;2022-07-31T00:22:41;21.70;1.00
25839;DHT22;13669;50.186;27.062;2022-07-31T00:25:11;21.70;1.00
25839;DHT22;13669;50.186;27.062;2022-07-31T00:27:40;21.70;1.00
25839;DHT22;13669;50.186;27.062;2022-07-31T00:30:08;21.70;1.00
25839;DHT22;13669;50.186;27.062;2022-07-31T00:32:36;21.70;1.00
25839;DHT22;13669;50.186;27.062;2022-07-31T00:35:04;21.80;1.00
25839;DHT22;13669;50.186;27.062;2022-07-31T00:37:34;21.80;1.00
25839;DHT22;13669;50.186;27.062;2022-07-31T00:40:05;21.80;1.00
25839;DHT22;13669;50.186;27.062;2022-07-31T00:42:33;21.80;1.00
25839;DHT22;13669;50.186;27.062;2022-07-31T00:45:01;21.80;1.00
25839;DHT22;13669;50.186;27.062;2022-07-31T00:47:28;21.80;1.00
25839;DHT22;13669;50.186;27.062;2022-07-31T00:49:56;21.80;1.00
25839;DHT22;13669;50.186;27.062;2022-07-31T00:52:23;21.80;1.00
25839;DHT22;13669;50.186;27.062;2022-07-31T00:54:51;21.80;1.00
25839;DHT22;13669;50.186;27.062;2022-07-31T00:57:18;21.80;1.00
25839;DHT22;13669;50.186;27.062;2022-07-31T00:59:46;21.80;1.00
25839;DHT22;13669;50.186;27.062;2022-07-31T01:02:14;21.80;1.00
25839;DHT22;13669;50.186;27.062;2022-07-31T01:04:41;21.80;1.00
25839;DHT22;13669;50.186;27.062;2022-07-31T01:07:11;21.80;3.90
25839;DHT22;13669;50.186;27.062;2022-07-31T01:09:39;21.90;18.60
25839;DHT22;13669;50.186;27.062;2022-07-31T01:14:56;21.90;49.70
25839;DHT22;13669;50.186;27.062;2022-07-31T01:17:24;22.00;74.80
25839;DHT22;13669;50.186;27.062;2022-07-31T01:19:54;21.90;94.60
25839;DHT22;13669;50.186;27.062;2022-07-31T01:31:32;21.90;99.90
25839;DHT22;13669;50.186;27.062;2022-07-31T01:34:06;21.90;99.90
25839;DHT22;13669;50.186;27.062;2022-07-31T01:36:37;21.90;99.90
25839;DHT22;13669;50.186;27.062;2022-07-31T01:39:06;21.80;99.90
25839;DHT22;13669;50.186;27.062;2022-07-31T01:41:38;21.80;99.90
25839;DHT22;13669;50.186;27.062;2022-07-31T01:44:07;21.80;99.90
25839;DHT22;13669;50.186;27.062;2022-07-31T01:46:42;21.80;99.90
25839;DHT22;13669;50.186;27.062;2022-07-31T01:49:11;21.80;1.00
25839;DHT22;13669;50.186;27.062;2022-07-31T01:51:40;21.70;1.00
25839;DHT22;13669;50.186;27.062;2022-07-31T01:54:11;21.70;1.00
25839;DHT22;13669;50.186;27.062;2022-07-31T01:56:40;21.70;82.90
25839;DHT22;13669;50.186;27.062;2022-07-31T01:59:09;21.60;99.90
25839;DHT22;13669;50.186;27.062;2022-07-31T02:01:47;21.60;99.90
25839;DHT22;13669;50.186;27.062;2022-07-31T02:04:17;21.60;1.00
25839;DHT22;13669;50.186;27.062;2022-07-31T02:06:48;21.60;1.00
25839;DHT22;13669;50.186;27.062;2022-07-31T02:09:19;21.60;1.00
25839;DHT22;13669;50.186;27.062;2022-07-31T02:11:49;21.60;1.00
25839;DHT22;13669;50.186;27.062;2022-07-31T02:14:20;21.50;1.00
25839;DHT22;13669;50.186;27.062;2022-07-31T02:16:49;21.50;99.90
25839;DHT22;13669;50.186;27.062;2022-07-31T02:19:18;21.60;99.90
25839;DHT22;13669;50.186;27.062;2022-07-31T02:21:49;21.60;99.90
25839;DHT22;13669;50.186;27.062;2022-07-31T02:24:17;21.50;99.90
25839;DHT22;13669;50.186;27.062;2022-07-31T02:26:45;21.50;99.90
25839;DHT22;13669;50.186;27.062;2022-07-31T02:29:15;21.50;99.90
25839;DHT22;13669;50.186;27.062;2022-07-31T02:31:50;21.60;59.20
25839;DHT22;13669;50.186;27.062;2022-07-31T02:34:37;21.60;1.00
25839;DHT22;13669;50.186;27.062;2022-07-31T02:37:05;21.50;1.00
25839;DHT22;13669;50.186;27.062;2022-07-31T02:39:35;21.50;1.00
25839;DHT22;13669;50.186;27.062;2022-07-31T02:42:04;21.50;1.00
25839;DHT22;13669;50.186;27.062;2022-07-31T02:44:32;21.50;1.00
25839;DHT22;13669;50.186;27.062;2022-07-31T02:47:01;21.60;1.00
25839;DHT22;13669;50.186;27.062;2022-07-31T02:49:31;21.60;1.00
25839;DHT22;13669;50.186;27.062;2022-07-31T02:52:03;21.50;1.00
25839;DHT22;13669;50.186;27.062;2022-07-31T02:54:36;21.50;1.00
25839;DHT22;13669;50.186;27.062;2022-07-31T02:57:05;21.50;1.00
25839;DHT22;13669;50.186;27.062;2022-07-31T02:59:37;21.50;1.00
25839;DHT22;13669;50.186;27.062;2022-07-31T03:02:05;21.50;1.00
25839;DHT22;13669;50.186;27.062;2022-07-31T03:04:33;21.50;1.00
25839;DHT22;13669;50.186;27.062;2022-07-31T03:07:02;21.50;1.00
25839;DHT22;13669;50.186;27.062;2022-07-31T03:09:29;21.60;1.00
25839;DHT22;13669;50.186;27.062;2022-07-31T03:11:57;21.50;99.90
25839;DHT22;13669;50.186;27.062;2022-07-31T03:14:31;21.60;99.90
25839;DHT22;13669;50.186;27.062;2022-07-31T03:17:02;21.60;99.90
25839;DHT22;13669;50.186;27.062;2022-07-31T03:19:31;21.50;99.90
25839;DHT22;13669;50.186;27.062;2022-07-31T03:21:59;21.50;99.90
25839;DHT22;13669;50.186;27.062;2022-07-31T03:24:27;21.50;99.90
25839;DHT22;13669;50.186;27.062;2022-07-31T03:26:55;21.40;99.90
25839;DHT22;13669;50.186;27.062;2022-07-31T03:29:23;21.40;99.90
25839;DHT22;13669;50.186;27.062;2022-07-31T03:32:09;21.30;99.90
25839;DHT22;13669;50.186;27.062;2022-07-31T03:34:37;21.10;1.00
25839;DHT22;13669;50.186;27.062;2022-07-31T03:37:04;21.10;1.00
25839;DHT22;13669;50.186;27.062;2022-07-31T03:39:32;21.10;1.00
25839;DHT22;13669;50.186;27.062;2022-07-31T03:42:00;21.10;1.00
25839;DHT22;13669;50.186;27.062;2022-07-31T03:44:30;21.10;1.00
25839;DHT22;13669;50.186;27.062;2022-07-31T03:46:59;21.20;1.00
25839;DHT22;13669;50.186;27.062;2022-07-31T03:49:27;21.20;14.70
25839;DHT22;13669;50.186;27.062;2022-07-31T03:51:55;21.20;99.90
25839;DHT22;13669;50.186;27.062;2022-07-31T03:54:22;21.20;14.30
25839;DHT22;13669;50.186;27.062;2022-07-31T03:56:51;21.10;99.90
25839;DHT22;13669;50.186;27.062;2022-07-31T03:59:19;21.00;99.90
25839;DHT22;13669;50.186;27.062;2022-07-31T04:01:48;21.00;99.90
25839;DHT22;13669;50.186;27.062;2022-07-31T04:04:24;21.00;1.00
25839;DHT22;13669;50.186;27.062;2022-07-31T04:06:52;20.90;99.90
25839;DHT22;13669;50.186;27.062;2022-07-31T04:09:19;20.80;1.00
25839;DHT22;13669;50.186;27.062;2022-07-31T04:11:47;20.80;99.90
25839;DHT22;13669;50.186;27.062;2022-07-31T04:14:15;20.80;99.90
25839;DHT22;13669;50.186;27.062;2022-07-31T04:16:43;20.80;39.40
25839;DHT22;13669;50.186;27.062;2022-07-31T04:19:10;20.80;1.00
25839;DHT22;13669;50.186;27.062;2022-07-31T04:21:38;20.80;1.00
25839;DHT22;13669;50.186;27.062;2022-07-31T04:24:05;20.90;1.00
25839;DHT22;13669;50.186;27.062;2022-07-31T04:26:33;20.90;1.00
25839;DHT22;13669;50.186;27.062;2022-07-31T04:29:01;20.90;1.00
25839;DHT22;13669;50.186;27.062;2022-07-31T04:31:28;20.90;99.90
25839;DHT22;13669;50.186;27.062;2022-07-31T04:33:56;20.90;99.90
25839;DHT22;13669;50.186;27.062;2022-07-31T04:36:23;20.90;99.90
25839;DHT22;13669;50.186;27.062;2022-07-31T04:38:57;21.00;99.90
25839;DHT22;13669;50.186;27.062;2022-07-31T04:41:25;21.00;99.90
25839;DHT22;13669;50.186;27.062;2022-07-31T04:43:52;21.00;99.90
25839;DHT22;13669;50.186;27.062;2022-07-31T04:46:20;21.10;99.90
25839;DHT22;13669;50.186;27.062;2022-07-31T04:48:47;21.10;99.90
25839;DHT22;13669;50.186;27.062;2022-07-31T04:51:17;21.10;99.90
25839;DHT22;13669;50.186;27.062;2022-07-31T04:53:45;21.10;99.90
25839;DHT22;13669;50.186;27.062;2022-07-31T04:56:13;21.20;99.90
25839;DHT22;13669;50.186;27.062;2022-07-31T04:59:01;21.30;99.90
25839;DHT22;13669;50.186;27.062;2022-07-31T05:01:29;21.30;44.10
25839;DHT22;13669;50.186;27.062;2022-07-31T05:03:57;21.20;99.60
25839;DHT22;13669;50.186;27.062;2022-07-31T05:09:08;21.30;82.90
25839;DHT22;13669;50.186;27.062;2022-07-31T05:11:44;21.30;30.90
25839;DHT22;13669;50.186;27.062;2022-07-31T05:14:13;21.30;59.70
25839;DHT22;13669;50.186;27.062;2022-07-31T05:16:41;21.30;75.10
25839;DHT22;13669;50.186;27.062;2022-07-31T05:19:09;21.30;75.90
25839;DHT22;13669;50.186;27.062;2022-07-31T05:21:42;21.30;95.70
25839;DHT22;13669;50.186;27.062;2022-07-31T05:24:19;21.30;1.00
25839;DHT22;13669;50.186;27.062;2022-07-31T05:27:03;21.30;3.50
25839;DHT22;13669;50.186;27.062;2022-07-31T05:29:32;21.30;36.80
25839;DHT22;13669;50.186;27.062;2022-07-31T05:32:00;21.40;18.70
25839;DHT22;13669;50.186;27.062;2022-07-31T05:34:29;21.40;8.50
25839;DHT22;13669;50.186;27.062;2022-07-31T05:37:00;21.40;93.60
25839;DHT22;13669;50.186;27.062;2022-07-31T05:39:29;21.40;99.90
25839;DHT22;13669;50.186;27.062;2022-07-31T05:41:56;21.40;99.90
25839;DHT22;13669;50.186;27.062;2022-07-31T05:44:24;21.40;99.90
25839;DHT22;13669;50.186;27.062;2022-07-31T05:46:52;21.40;99.90
25839;DHT22;13669;50.186;27.062;2022-07-31T05:49:18;21.40;99.90
25839;DHT22;13669;50.186;27.062;2022-07-31T05:51:46;21.40;99.90
25839;DHT22;13669;50.186;27.062;2022-07-31T05:54:14;21.40;99.90
25839;DHT22;13669;50.186;27.062;2022-07-31T05:56:41;21.60;99.90
25839;DHT22;13669;50.186;27.062;2022-07-31T05:59:09;21.60;99.90
25839;DHT22;13669;50.186;27.062;2022-07-31T06:01:36;21.70;99.90
25839;DHT22;13669;50.186;27.062;2022-07-31T06:04:04;21.70;99.90
25839;DHT22;13669;50.186;27.062;2022-07-31T06:06:34;21.60;99.90
25839;DHT22;13669;50.186;27.062;2022-07-31T06:09:02;21.60;99.90
25839;DHT22;13669;50.186;27.062;2022-07-31T06:11:31;21.60;99.90
25839;DHT22;13669;50.186;27.062;2022-07-31T06:13:59;21.60;99.90
25839;DHT22;13669;50.186;27.062;2022-07-31T06:16:27;21.60;99.90
25839;DHT22;13669;50.186;27.062;2022-07-31T06:18:54;21.70;99.90
25839;DHT22;13669;50.186;27.062;2022-07-31T06:21:22;21.50;99.90
25839;DHT22;13669;50.186;27.062;2022-07-31T06:23:54;21.50;1.00
25839;DHT22;13669;50.186;27.062;2022-07-31T06:26:22;21.70;99.90
25839;DHT22;13669;50.186;27.062;2022-07-31T06:28:52;21.80;99.90
25839;DHT22;13669;50.186;27.062;2022-07-31T06:31:21;21.80;99.90
25839;DHT22;13669;50.186;27.062;2022-07-31T06:33:49;21.90;99.90
25839;DHT22;13669;50.186;27.062;2022-07-31T06:36:17;21.80;99.90
25839;DHT22;13669;50.186;27.062;2022-07-31T06:38:45;21.80;1.00
25839;DHT22;13669;50.186;27.062;2022-07-31T06:41:13;21.70;99.90
25839;DHT22;13669;50.186;27.062;2022-07-31T06:43:59;21.80;99.90
25839;DHT22;13669;50.186;27.062;2022-07-31T06:46:26;21.70;1.00
25839;DHT22;13669;50.186;27.062;2022-07-31T06:48:54;21.70;17.50
25839;DHT22;13669;50.186;27.062;2022-07-31T06:51:21;21.70;1.00
25839;DHT22;13669;50.186;27.062;2022-07-31T06:54:02;21.60;99.90
25839;DHT22;13669;50.186;27.062;2022-07-31T06:56:30;21.50;1.00
25839;DHT22;13669;50.186;27.062;2022-07-31T06:59:00;21.40;15.70
25839;DHT22;13669;50.186;27.062;2022-07-31T07:01:28;21.30;1.00
25839;DHT22;13669;50.186;27.062;2022-07-31T07:03:55;21.20;1.00
25839;DHT22;13669;50.186;27.062;2022-07-31T07:06:23;21.10;99.90
25839;DHT22;13669;50.186;27.062;2022-07-31T07:08:51;21.30;1.00
25839;DHT22;13669;50.186;27.062;2022-07-31T07:11:19;21.40;1.00
25839;DHT22;13669;50.186;27.062;2022-07-31T07:13:47;21.60;1.00
25839;DHT22;13669;50.186;27.062;2022-07-31T07:16:15;21.70;62.10
25839;DHT22;13669;50.186;27.062;2022-07-31T07:18:43;21.70;1.00
25839;DHT22;13669;50.186;27.062;2022-07-31T07:21:11;21.70;21.60
25839;DHT22;13669;50.186;27.062;2022-07-31T07:23:39;21.90;99.90
25839;DHT22;13669;50.186;27.062;2022-07-31T07:26:07;22.00;99.90
25839;DHT22;13669;50.186;27.062;2022-07-31T07:28:35;21.90;45.30
25839;DHT22;13669;50.186;27.062;2022-07-31T07:31:03;22.10;99.90
25839;DHT22;13669;50.186;27.062;2022-07-31T07:33:32;22.30;1.00
25839;DHT22;13669;50.186;27.062;2022-07-31T07:36:09;22.30;99.90
25839;DHT22;13669;50.186;27.062;2022-07-31T07:38:51;22.30;99.90
25839;DHT22;13669;50.186;27.062;2022-07-31T07:41:22;22.10;1.00
25839;DHT22;13669;50.186;27.062;2022-07-31T07:43:49;21.90;49.50
25839;DHT22;13669;50.186;27.062;2022-07-31T07:46:20;21.80;91.50
25839;DHT22;13669;50.186;27.062;2022-07-31T07:48:48;21.80;99.90
25839;DHT22;13669;50.186;27.062;2022-07-31T07:51:18;21.80;99.90
25839;DHT22;13669;50.186;27.062;2022-07-31T07:53:45;21.80;99.90
25839;DHT22;13669;50.186;27.062;2022-07-31T07:56:13;21.90;99.90
25839;DHT22;13669;50.186;27.062;2022-07-31T07:58:41;21.90;91.90
25839;DHT22;13669;50.186;27.062;2022-07-31T08:01:09;21.80;99.90
25839;DHT22;13669;50.186;27.062;2022-07-31T08:03:36;21.80;1.00
25839;DHT22;13669;50.186;27.062;2022-07-31T08:06:21;21.80;1.00
25839;DHT22;13669;50.186;27.062;2022-07-31T08:08:49;21.80;99.90
25839;DHT22;13669;50.186;27.062;2022-07-31T08:11:17;21.50;34.20
25839;DHT22;13669;50.186;27.062;2022-07-31T08:13:45;21.50;1.00
25839;DHT22;13669;50.186;27.062;2022-07-31T08:16:21;21.30;99.90
25839;DHT22;13669;50.186;27.062;2022-07-31T08:18:49;21.20;99.90
25839;DHT22;13669;50.186;27.062;2022-07-31T08:21:17;21.10;1.00
25839;DHT22;13669;50.186;27.062;2022-07-31T08:23:45;21.00;1.00
25839;DHT22;13669;50.186;27.062;2022-07-31T08:26:13;21.00;99.90
25839;DHT22;13669;50.186;27.062;2022-07-31T08:28:41;21.00;99.90
25839;DHT22;13669;50.186;27.062;2022-07-31T08:31:18;20.90;1.00
25839;DHT22;13669;50.186;27.062;2022-07-31T08:33:46;20.70;1.00
25839;DHT22;13669;50.186;27.062;2022-07-31T08:36:14;20.70;1.00
25839;DHT22;13669;50.186;27.062;2022-07-31T08:38:41;20.80;1.00
25839;DHT22;13669;50.186;27.062;2022-07-31T08:41:11;20.80;1.00
25839;DHT22;13669;50.186;27.062;2022-07-31T08:43:39;20.70;1.80
25839;DHT22;13669;50.186;27.062;2022-07-31T08:46:28;20.80;1.00
25839;DHT22;13669;50.186;27.062;2022-07-31T08:48:57;20.80;18.20
25839;DHT22;13669;50.186;27.062;2022-07-31T08:51:28;20.70;1.00
25839;DHT22;13669;50.186;27.062;2022-07-31T08:53:58;20.50;22.70
25839;DHT22;13669;50.186;27.062;2022-07-31T08:56:27;20.50;17.40
25839;DHT22;13669;50.186;27.062;2022-07-31T08:58:55;20.50;26.50
25839;DHT22;13669;50.186;27.062;2022-07-31T09:01:23;20.40;16.80
25839;DHT22;13669;50.186;27.062;2022-07-31T09:03:53;20.50;5.60
25839;DHT22;13669;50.186;27.062;2022-07-31T09:06:20;20.50;7.90
25839;DHT22;13669;50.186;27.062;2022-07-31T09:08:48;20.60;49.30
25839;DHT22;13669;50.186;27.062;2022-07-31T09:11:16;20.80;1.00
25839;DHT22;13669;50.186;27.062;2022-07-31T09:13:59;20.80;1.00
25839;DHT22;13669;50.186;27.062;2022-07-31T09:16:30;20.90;1.00
25839;DHT22;13669;50.186;27.062;2022-07-31T09:19:04;21.10;1.00
25839;DHT22;13669;50.186;27.062;2022-07-31T09:21:51;21.00;1.00
25839;DHT22;13669;50.186;27.062;2022-07-31T09:24:31;21.00;1.00
25839;DHT22;13669;50.186;27.062;2022-07-31T09:27:07;21.00;1.00
25839;DHT22;13669;50.186;27.062;2022-07-31T09:29:42;21.00;1.00
25839;DHT22;13669;50.186;27.062;2022-07-31T09:34:43;20.80;1.00
25839;DHT22;13669;50.186;27.062;2022-07-31T09:37:13;20.70;1.00
25839;DHT22;13669;50.186;27.062;2022-07-31T09:39:47;20.60;1.00
25839;DHT22;13669;50.186;27.062;2022-07-31T09:42:19;20.60;1.00
25839;DHT22;13669;50.186;27.062;2022-07-31T09:44:48;20.50;1.00
25839;DHT22;13669;50.186;27.062;2022-07-31T09:50:02;20.60;1.00
25839;DHT22;13669;50.186;27.062;2022-07-31T09:52:31;20.60;1.00
25839;DHT22;13669;50.186;27.062;2022-07-31T09:55:13;20.60;1.00
25839;DHT22;13669;50.186;27.062;2022-07-31T09:57:51;20.60;1.00
25839;DHT22;13669;50.186;27.062;2022-07-31T10:00:20;20.60;1.00
25839;DHT22;13669;50.186;27.062;2022-07-31T10:02:49;20.80;1.00
25839;DHT22;13669;50.186;27.062;2022-07-31T10:05:17;21.00;1.00
25839;DHT22;13669;50.186;27.062;2022-07-31T10:07:45;21.20;99.90
25839;DHT22;13669;50.186;27.062;2022-07-31T10:10:14;21.40;99.90
25839;DHT22;13669;50.186;27.062;2022-07-31T10:12:50;21.70;99.90
25839;DHT22;13669;50.186;27.062;2022-07-31T10:15:20;21.80;55.40
25839;DHT22;13669;50.186;27.062;2022-07-31T10:17:51;22.00;1.00
25839;DHT22;13669;50.186;27.062;2022-07-31T10:20:21;22.10;9.10
25839;DHT22;13669;50.186;27.062;2022-07-31T10:22:53;22.20;99.90
25839;DHT22;13669;50.186;27.062;2022-07-31T10:25:27;22.20;1.00
25839;DHT22;13669;50.186;27.062;2022-07-31T10:27:56;22.10;1.00
25839;DHT22;13669;50.186;27.062;2022-07-31T10:30:24;22.00;1.00
25839;DHT22;13669;50.186;27.062;2022-07-31T10:32:55;21.90;99.90
25839;DHT22;13669;50.186;27.062;2022-07-31T10:35:23;22.00;99.90
25839;DHT22;13669;50.186;27.062;2022-07-31T10:38:29;22.00;99.90
25839;DHT22;13669;50.186;27.062;2022-07-31T10:43:45;22.10;99.90
25839;DHT22;13669;50.186;27.062;2022-07-31T10:46:13;21.90;99.90
25839;DHT22;13669;50.186;27.062;2022-07-31T10:48:51;21.80;99.90
25839;DHT22;13669;50.186;27.062;2022-07-31T10:51:19;21.60;1.00
25839;DHT22;13669;50.186;27.062;2022-07-31T10:54:00;21.60;1.00
25839;DHT22;13669;50.186;27.062;2022-07-31T10:56:28;21.60;1.00
25839;DHT22;13669;50.186;27.062;2022-07-31T10:59:05;21.60;1.00
25839;DHT22;13669;50.186;27.062;2022-07-31T11:04:29;21.60;1.00
25839;DHT22;13669;50.186;27.062;2022-07-31T11:07:00;21.60;1.00
25839;DHT22;13669;50.186;27.062;2022-07-31T11:09:28;21.50;1.00
25839;DHT22;13669;50.186;27.062;2022-07-31T11:11:56;21.60;1.00
25839;DHT22;13669;50.186;27.062;2022-07-31T11:14:34;21.60;1.00
25839;DHT22;13669;50.186;27.062;2022-07-31T11:17:04;21.70;1.00
25839;DHT22;13669;50.186;27.062;2022-07-31T11:19:39;21.80;1.00
25839;DHT22;13669;50.186;27.062;2022-07-31T11:22:12;22.00;99.90
25839;DHT22;13669;50.186;27.062;2022-07-31T11:24:58;22.20;99.90
25839;DHT22;13669;50.186;27.062;2022-07-31T11:27:31;22.60;99.90
25839;DHT22;13669;50.186;27.062;2022-07-31T11:30:06;22.80;1.00
25839;DHT22;13669;50.186;27.062;2022-07-31T11:32:46;22.90;99.90
25839;DHT22;13669;50.186;27.062;2022-07-31T11:35:24;23.10;99.90
25839;DHT22;13669;50.186;27.062;2022-07-31T11:37:51;23.20;1.00
25839;DHT22;13669;50.186;27.062;2022-07-31T11:40:24;23.20;1.00
25839;DHT22;13669;50.186;27.062;2022-07-31T11:42:54;23.20;99.90
25839;DHT22;13669;50.186;27.062;2022-07-31T11:45:48;23.20;99.90
25839;DHT22;13669;50.186;27.062;2022-07-31T11:48:17;23.20;1.00
25839;DHT22;13669;50.186;27.062;2022-07-31T11:50:47;23.10;99.90
25839;DHT22;13669;50.186;27.062;2022-07-31T11:53:16;22.90;99.90
25839;DHT22;13669;50.186;27.062;2022-07-31T11:58:11;22.90;1.00
25839;DHT22;13669;50.186;27.062;2022-07-31T12:00:48;22.90;1.00
25839;DHT22;13669;50.186;27.062;2022-07-31T12:03:18;23.00;1.00
25839;DHT22;13669;50.186;27.062;2022-07-31T12:05:47;23.00;99.90
25839;DHT22;13669;50.186;27.062;2022-07-31T12:08:15;23.10;99.90
25839;DHT22;13669;50.186;27.062;2022-07-31T12:10:44;22.90;99.90
25839;DHT22;13669;50.186;27.062;2022-07-31T12:13:14;22.80;62.90
25839;DHT22;13669;50.186;27.062;2022-07-31T12:16:00;22.80;1.00
25839;DHT22;13669;50.186;27.062;2022-07-31T12:18:43;22.80;99.90
25839;DHT22;13669;50.186;27.062;2022-07-31T12:21:11;22.80;99.90
25839;DHT22;13669;50.186;27.062;2022-07-31T12:23:53;22.80;99.90
25839;DHT22;13669;50.186;27.062;2022-07-31T12:26:31;22.80;99.90
25839;DHT22;13669;50.186;27.062;2022-07-31T12:29:08;22.80;93.60
25839;DHT22;13669;50.186;27.062;2022-07-31T12:31:54;22.90;87.40
25839;DHT22;13669;50.186;27.062;2022-07-31T12:34:32;23.10;1.00
25839;DHT22;13669;50.186;27.062;2022-07-31T12:37:08;23.10;1.00
25839;DHT22;13669;50.186;27.062;2022-07-31T12:39:53;23.30;1.00
25839;DHT22;13669;50.186;27.062;2022-07-31T12:42:31;23.50;99.90
25839;DHT22;13669;50.186;27.062;2022-07-31T12:45:08;23.60;99.90
25839;DHT22;13669;50.186;27.062;2022-07-31T12:47:47;23.60;1.00
25839;DHT22;13669;50.186;27.062;2022-07-31T12:50:19;23.50;1.00
25839;DHT22;13669;50.186;27.062;2022-07-31T12:52:47;23.50;1.00
25839;DHT22;13669;50.186;27.062;2022-07-31T12:55:15;23.60;99.90
25839;DHT22;13669;50.186;27.062;2022-07-31T12:57:45;23.90;99.90
25839;DHT22;13669;50.186;27.062;2022-07-31T13:00:22;24.00;99.90
25839;DHT22;13669;50.186;27.062;2022-07-31T13:02:51;24.00;73.50
25839;DHT22;13669;50.186;27.062;2022-07-31T13:05:20;23.90;91.50
25839;DHT22;13669;50.186;27.062;2022-07-31T13:07:47;23.90;35.20
25839;DHT22;13669;50.186;27.062;2022-07-31T13:10:15;23.80;31.70
25839;DHT22;13669;50.186;27.062;2022-07-31T13:12:48;23.80;48.60
25839;DHT22;13669;50.186;27.062;2022-07-31T13:15:21;23.60;75.10
25839;DHT22;13669;50.186;27.062;2022-07-31T13:17:57;23.70;92.10
25839;DHT22;13669;50.186;27.062;2022-07-31T13:20:25;23.90;99.90
25839;DHT22;13669;50.186;27.062;2022-07-31T13:22:52;24.00;60.10
25839;DHT22;13669;50.186;27.062;2022-07-31T13:25:20;24.10;31.30
25839;DHT22;13669;50.186;27.062;2022-07-31T13:27:48;24.10;1.00
25839;DHT22;13669;50.186;27.062;2022-07-31T13:30:15;24.10;1.00
25839;DHT22;13669;50.186;27.062;2022-07-31T13:32:43;24.20;99.90
25839;DHT22;13669;50.186;27.062;2022-07-31T13:35:11;24.30;99.90
25839;DHT22;13669;50.186;27.062;2022-07-31T13:37:54;24.60;99.90
25839;DHT22;13669;50.186;27.062;2022-07-31T13:40:22;24.60;99.90
25839;DHT22;13669;50.186;27.062;2022-07-31T13:43:25;24.60;99.90
25839;DHT22;13669;50.186;27.062;2022-07-31T13:45:52;24.50;99.90
25839;DHT22;13669;50.186;27.062;2022-07-31T13:48:20;24.40;99.90
25839;DHT22;13669;50.186;27.062;2022-07-31T13:50:47;24.50;99.90
25839;DHT22;13669;50.186;27.062;2022-07-31T13:53:15;24.30;99.90
25839;DHT22;13669;50.186;27.062;2022-07-31T13:55:43;24.10;99.90
25839;DHT22;13669;50.186;27.062;2022-07-31T13:58:16;24.10;99.90
25839;DHT22;13669;50.186;27.062;2022-07-31T14:00:44;24.10;99.90
25839;DHT22;13669;50.186;27.062;2022-07-31T14:03:11;24.20;1.00
25839;DHT22;13669;50.186;27.062;2022-07-31T14:05:47;24.20;1.00
25839;DHT22;13669;50.186;27.062;2022-07-31T14:08:16;24.10;1.00
25839;DHT22;13669;50.186;27.062;2022-07-31T14:10:59;24.10;1.00
25839;DHT22;13669;50.186;27.062;2022-07-31T14:13:27;24.00;1.00
25839;DHT22;13669;50.186;27.062;2022-07-31T14:15:55;24.00;1.00
25839;DHT22;13669;50.186;27.062;2022-07-31T14:18:23;24.00;1.00
25839;DHT22;13669;50.186;27.062;2022-07-31T14:20:51;23.90;20.40
25839;DHT22;13669;50.186;27.062;2022-07-31T14:23:19;24.50;1.00
25839;DHT22;13669;50.186;27.062;2022-07-31T14:26:00;25.10;99.90
25839;DHT22;13669;50.186;27.062;2022-07-31T14:28:29;25.70;99.90
25839;DHT22;13669;50.186;27.062;2022-07-31T14:30:56;26.20;6.60
25839;DHT22;13669;50.186;27.062;2022-07-31T14:33:24;26.50;1.00
25839;DHT22;13669;50.186;27.062;2022-07-31T14:35:51;26.50;99.90
25839;DHT22;13669;50.186;27.062;2022-07-31T14:38:21;26.60;99.90
25839;DHT22;13669;50.186;27.062;2022-07-31T14:40:54;26.30;99.90
25839;DHT22;13669;50.186;27.062;2022-07-31T14:43:22;26.40;99.90
25839;DHT22;13669;50.186;27.062;2022-07-31T14:45:50;26.40;99.90
25839;DHT22;13669;50.186;27.062;2022-07-31T14:48:18;26.30;99.90
25839;DHT22;13669;50.186;27.062;2022-07-31T14:50:46;25.80;99.90
25839;DHT22;13669;50.186;27.062;2022-07-31T14:53:13;25.40;99.90
25839;DHT22;13669;50.186;27.062;2022-07-31T14:55:41;24.90;99.90
25839;DHT22;13669;50.186;27.062;2022-07-31T14:58:08;24.70;1.00
25839;DHT22;13669;50.186;27.062;2022-07-31T15:00:36;24.40;1.00
25839;DHT22;13669;50.186;27.062;2022-07-31T15:03:03;24.20;1.00
25839;DHT22;13669;50.186;27.062;2022-07-31T15:05:31;23.90;95.10
25839;DHT22;13669;50.186;27.062;2022-07-31T15:08:18;23.70;99.90
25839;DHT22;13669;50.186;27.062;2022-07-31T15:10:46;23.50;1.00
25839;DHT22;13669;50.186;27.062;2022-07-31T15:13:13;23.30;99.90
25839;DHT22;13669;50.186;27.062;2022-07-31T15:15:41;23.20;1.00
25839;DHT22;13669;50.186;27.062;2022-07-31T15:18:08;23.00;99.90
25839;DHT22;13669;50.186;27.062;2022-07-31T15:20:36;22.90;99.90
25839;DHT22;13669;50.186;27.062;2022-07-31T15:23:03;22.60;99.90
25839;DHT22;13669;50.186;27.062;2022-07-31T15:25:31;22.60;1.00
25839;DHT22;13669;50.186;27.062;2022-07-31T15:27:58;22.60;99.90
25839;DHT22;13669;50.186;27.062;2022-07-31T15:30:26;22.50;99.90
25839;DHT22;13669;50.186;27.062;2022-07-31T15:32:53;22.50;99.90
25839;DHT22;13669;50.186;27.062;2022-07-31T15:35:21;22.30;99.90
25839;DHT22;13669;50.186;27.062;2022-07-31T15:37:48;22.20;72.70
25839;DHT22;13669;50.186;27.062;2022-07-31T15:40:16;22.10;1.00
25839;DHT22;13669;50.186;27.062;2022-07-31T15:42:45;21.90;35.90
25839;DHT22;13669;50.186;27.062;2022-07-31T15:45:15;21.80;99.90
25839;DHT22;13669;50.186;27.062;2022-07-31T15:47:43;21.70;99.90
25839;DHT22;13669;50.186;27.062;2022-07-31T15:50:13;21.60;99.90
25839;DHT22;13669;50.186;27.062;2022-07-31T15:52:41;21.50;1.00
25839;DHT22;13669;50.186;27.062;2022-07-31T15:55:09;21.40;1.00
25839;DHT22;13669;50.186;27.062;2022-07-31T15:57:38;21.30;1.00
25839;DHT22;13669;50.186;27.062;2022-07-31T16:00:07;21.20;1.00
25839;DHT22;13669;50.186;27.062;2022-07-31T16:02:40;21.30;1.00
25839;DHT22;13669;50.186;27.062;2022-07-31T16:05:09;21.20;1.00
25839;DHT22;13669;50.186;27.062;2022-07-31T16:07:48;21.10;1.00
25839;DHT22;13669;50.186;27.062;2022-07-31T16:10:35;21.10;1.00